Terminal Aerodrome Forecast
Issued by NWS

Home | Current Version | Previous Version | Text Only | Print | Product List | Glossary On
Versions: 1 2 3 4 5 6 7 8 9 10 11 12 13 14
065
FTUS44 KLIX 110530
TAFMCB
TAF
KMCB 110530Z 1106/1206 00000KT 5SM HZ SKC
     FM111400 14004KT P6SM FEW150
     FM111700 16008KT P6SM SCT100=

USA.gov is the U.S. government's official web portal to all federal, state and local government web resources and services.